Time;durP1;ratioP1;P1;durP2;ratioP2;P2;SDS_P1;SDS_P2;PMS_P1;PMS_P2;Temp;Humidity;BMP_temperature;BMP_pressure;BME280_temperature;BME280_humidity;BME280_pressure;Samples;Min_cycle;Max_cycle;Signal;HPM_P1;HPM_P2
2023/07/14 00:00:19;;;;;;;2.67;2.47;;;17.50;99.90;;;;;;5011440;28;20207;-64
2023/07/14 00:02:48;;;;;;;2.57;2.37;;;17.50;99.90;;;;;;5007652;28;20223;-68
2023/07/14 00:05:17;;;;;;;1.97;1.80;;;17.50;99.90;;;;;;5012801;28;20237;-68
2023/07/14 00:07:46;;;;;;;2.23;2.13;;;17.40;99.90;;;;;;5018520;28;20203;-56
2023/07/14 00:10:19;;;;;;;2.83;2.67;;;17.50;99.90;;;;;;5030420;28;20202;-57
2023/07/14 00:12:48;;;;;;;2.50;2.40;;;17.40;99.90;;;;;;5019266;28;20708;-56
2023/07/14 00:15:16;;;;;;;2.90;2.33;;;17.40;99.90;;;;;;5029429;28;20211;-57
2023/07/14 00:17:43;;;;;;;2.83;2.57;;;17.40;99.90;;;;;;5019638;28;20219;-57
2023/07/14 00:20:22;;;;;;;1.70;1.70;;;17.40;99.90;;;;;;5031301;28;20260;-56
2023/07/14 00:22:49;;;;;;;2.50;2.40;;;17.40;99.90;;;;;;5026921;28;20222;-57
2023/07/14 00:25:17;;;;;;;3.27;2.50;;;17.40;99.90;;;;;;5024479;28;20209;-56
2023/07/14 00:27:44;;;;;;;2.83;2.67;;;17.40;99.90;;;;;;5027102;28;20207;-56
2023/07/14 00:30:18;;;;;;;2.20;2.10;;;17.30;99.90;;;;;;5010037;28;20214;-56
2023/07/14 00:32:49;;;;;;;2.30;2.20;;;17.30;99.90;;;;;;5022566;28;20219;-55
2023/07/14 00:35:21;;;;;;;1.90;1.90;;;17.30;99.90;;;;;;5010386;28;20260;-56
2023/07/14 00:37:48;;;;;;;1.93;1.80;;;17.30;99.90;;;;;;5011477;28;20237;-56
2023/07/14 00:40:18;;;;;;;2.07;1.97;;;17.20;99.90;;;;;;5018827;28;20199;-56
2023/07/14 00:42:47;;;;;;;1.93;1.83;;;17.20;99.90;;;;;;5018528;28;20261;-56
2023/07/14 00:45:20;;;;;;;1.87;1.87;;;17.20;99.90;;;;;;5010307;28;20578;-56
2023/07/14 00:47:52;;;;;;;1.83;1.40;;;17.20;99.90;;;;;;5011539;28;20281;-56
2023/07/14 00:50:26;;;;;;;1.77;1.70;;;17.20;99.90;;;;;;5011380;28;20289;-56
2023/07/14 00:52:54;;;;;;;2.60;2.00;;;17.20;99.90;;;;;;5010997;28;20904;-56
2023/07/14 00:55:36;;;;;;;1.77;1.77;;;17.10;99.90;;;;;;5009543;28;20273;-56
2023/07/14 00:58:05;;;;;;;3.97;1.73;;;17.00;99.90;;;;;;5017306;28;20222;-56
2023/07/14 01:00:33;;;;;;;1.97;1.30;;;17.00;99.90;;;;;;5025547;28;20715;-57
2023/07/14 01:03:02;;;;;;;1.63;1.53;;;17.00;99.90;;;;;;5023413;28;20223;-56
2023/07/14 01:05:31;;;;;;;2.33;2.13;;;17.00;99.90;;;;;;5011423;28;20249;-57
2023/07/14 01:07:58;;;;;;;3.40;2.13;;;17.00;99.90;;;;;;5018485;28;20202;-56
2023/07/14 01:10:29;;;;;;;1.90;1.80;;;17.00;99.90;;;;;;5025114;28;20676;-56
2023/07/14 01:13:01;;;;;;;2.00;2.00;;;16.90;99.90;;;;;;5009853;28;20259;-56
2023/07/14 01:15:29;;;;;;;2.10;1.87;;;16.90;99.90;;;;;;5021854;28;20213;-57
2023/07/14 01:17:57;;;;;;;2.20;2.10;;;16.90;99.90;;;;;;5030619;28;20222;-56
2023/07/14 01:20:24;;;;;;;2.77;1.53;;;16.90;99.90;;;;;;5022066;28;20205;-56
2023/07/14 01:23:05;;;;;;;3.17;2.67;;;16.90;99.90;;;;;;5016396;28;20226;-56
2023/07/14 01:25:46;;;;;;;2.17;2.07;;;16.90;99.90;;;;;;5011148;28;20214;-56
2023/07/14 01:28:16;;;;;;;2.93;2.20;;;16.80;99.90;;;;;;5004950;28;20681;-56
2023/07/14 01:30:43;;;;;;;1.90;1.90;;;16.80;99.90;;;;;;5018392;28;20231;-56
2023/07/14 01:33:15;;;;;;;1.73;1.63;;;16.80;99.90;;;;;;5016536;28;20277;-56
2023/07/14 01:35:47;;;;;;;2.07;1.97;;;16.80;99.90;;;;;;5014562;28;20525;-56
2023/07/14 01:38:15;;;;;;;1.63;1.63;;;16.70;99.90;;;;;;5012916;28;20223;-56
2023/07/14 01:40:42;;;;;;;2.30;1.70;;;16.70;99.90;;;;;;5013632;28;20199;-56
2023/07/14 01:43:12;;;;;;;1.80;1.70;;;16.70;99.90;;;;;;5002495;28;20269;-56
2023/07/14 01:45:44;;;;;;;2.20;2.00;;;16.70;99.90;;;;;;5047469;23;20321;-51
2023/07/14 01:48:14;;;;;;;2.00;1.90;;;16.70;99.90;;;;;;5033713;28;20672;-51
2023/07/14 01:50:46;;;;;;;2.10;2.00;;;16.60;99.90;;;;;;5034572;28;20792;-51
2023/07/14 01:53:18;;;;;;;2.23;2.13;;;16.60;99.90;;;;;;5028608;28;20229;-51
2023/07/14 01:55:47;;;;;;;1.47;1.47;;;16.60;99.90;;;;;;5033519;28;20232;-51
2023/07/14 01:58:17;;;;;;;1.83;1.73;;;16.60;99.90;;;;;;5033359;28;20272;-51
2023/07/14 02:00:48;;;;;;;2.27;2.17;;;16.60;99.90;;;;;;5034476;28;20202;-51
2023/07/14 02:03:19;;;;;;;2.43;2.07;;;16.50;99.90;;;;;;5033589;28;20210;-51
2023/07/14 02:05:47;;;;;;;1.50;1.40;;;16.50;99.90;;;;;;5033485;28;20233;-51
2023/07/14 02:08:21;;;;;;;1.83;1.73;;;16.60;99.90;;;;;;5034647;28;20206;-51
2023/07/14 02:10:48;;;;;;;1.50;1.40;;;16.60;99.90;;;;;;5034449;28;20581;-51
2023/07/14 02:13:15;;;;;;;1.67;1.57;;;16.50;99.90;;;;;;5034207;28;20268;-51
2023/07/14 02:15:42;;;;;;;1.53;1.53;;;16.50;99.90;;;;;;5033375;28;20650;-51
2023/07/14 02:18:15;;;;;;;1.87;1.77;;;16.50;99.90;;;;;;5031889;28;20692;-51
2023/07/14 02:20:44;;;;;;;1.87;1.77;;;16.50;99.90;;;;;;5034170;28;20237;-51
2023/07/14 02:23:15;;;;;;;1.67;1.57;;;16.40;99.90;;;;;;5033795;28;20565;-51
2023/07/14 02:25:44;;;;;;;2.30;2.20;;;16.40;99.90;;;;;;5034086;28;20218;-51
2023/07/14 02:28:12;;;;;;;2.50;2.40;;;16.40;99.90;;;;;;5033195;28;20238;-52
2023/07/14 02:30:43;;;;;;;2.00;1.93;;;16.40;99.90;;;;;;5032798;28;20248;-51
2023/07/14 02:33:26;;;;;;;2.37;2.23;;;16.40;99.90;;;;;;5032109;28;20250;-51
2023/07/14 02:36:02;;;;;;;3.00;2.20;;;16.30;99.90;;;;;;5033864;28;20226;-52
2023/07/14 02:38:29;;;;;;;1.80;1.70;;;16.30;99.90;;;;;;5033798;28;20304;-51
2023/07/14 02:41:03;;;;;;;7.27;2.03;;;16.20;99.90;;;;;;5033074;28;20194;-51
2023/07/14 02:43:30;;;;;;;2.83;1.87;;;16.20;99.90;;;;;;5033450;28;20198;-51
2023/07/14 02:46:00;;;;;;;2.90;2.70;;;16.20;99.90;;;;;;5033750;28;20230;-51
2023/07/14 02:48:34;;;;;;;2.30;2.20;;;16.20;99.90;;;;;;5030342;28;20194;-51
2023/07/14 02:51:02;;;;;;;2.43;2.23;;;16.10;99.90;;;;;;5033568;28;20207;-51
2023/07/14 02:53:29;;;;;;;3.00;2.00;;;16.00;99.90;;;;;;5032760;28;20252;-51
2023/07/14 02:55:56;;;;;;;2.60;2.50;;;15.90;99.90;;;;;;5033623;28;20303;-51
2023/07/14 02:58:24;;;;;;;2.40;2.20;;;15.90;99.90;;;;;;5033435;28;20696;-51
2023/07/14 03:00:51;;;;;;;2.87;2.00;;;15.80;99.90;;;;;;5033635;28;20212;-51
2023/07/14 03:03:18;;;;;;;2.40;2.30;;;15.80;99.90;;;;;;5033110;28;20252;-51
2023/07/14 03:05:46;;;;;;;2.73;2.60;;;15.80;99.90;;;;;;5030643;28;20257;-51
2023/07/14 03:08:15;;;;;;;2.73;2.30;;;15.80;99.90;;;;;;5033435;28;20222;-51
2023/07/14 03:10:43;;;;;;;2.00;1.90;;;15.80;99.90;;;;;;5033184;28;20206;-51
2023/07/14 03:13:10;;;;;;;2.50;2.37;;;15.80;99.90;;;;;;5030713;28;20664;-51
2023/07/14 03:15:37;;;;;;;1.80;1.77;;;15.90;99.90;;;;;;5033005;28;20219;-52
2023/07/14 03:18:04;;;;;;;1.83;1.83;;;15.90;99.90;;;;;;5033002;28;20297;-51
2023/07/14 03:20:31;;;;;;;2.47;2.37;;;15.90;99.90;;;;;;5029840;28;20673;-51
2023/07/14 03:23:00;;;;;;;3.13;2.30;;;15.90;99.90;;;;;;5025947;28;20585;-51
2023/07/14 03:25:27;;;;;;;2.40;2.30;;;15.90;99.90;;;;;;5032191;28;20222;-51
2023/07/14 03:27:54;;;;;;;4.83;2.13;;;16.00;99.90;;;;;;5032887;28;20191;-51
2023/07/14 03:30:21;;;;;;;2.20;2.00;;;15.90;99.90;;;;;;5032851;28;20253;-51
2023/07/14 03:32:50;;;;;;;1.93;1.87;;;15.90;99.90;;;;;;5031503;28;20203;-51
2023/07/14 03:35:18;;;;;;;2.10;2.00;;;15.90;99.90;;;;;;5032768;28;20241;-51
2023/07/14 03:37:46;;;;;;;2.20;2.10;;;15.90;99.90;;;;;;5029143;28;20229;-51
2023/07/14 03:40:14;;;;;;;3.13;2.40;;;15.90;99.90;;;;;;5031990;28;20268;-51
2023/07/14 03:42:43;;;;;;;3.63;2.90;;;15.90;99.90;;;;;;5025516;28;20210;-51
2023/07/14 03:45:11;;;;;;;2.50;2.30;;;15.80;99.90;;;;;;5024433;28;20226;-51
2023/07/14 03:47:41;;;;;;;2.23;2.17;;;15.80;99.90;;;;;;5032673;28;20210;-51
2023/07/14 03:50:11;;;;;;;1.83;1.73;;;15.80;99.90;;;;;;5032498;28;20198;-51
2023/07/14 03:52:41;;;;;;;3.20;2.33;;;15.90;99.90;;;;;;5032186;28;20211;-51
2023/07/14 03:55:09;;;;;;;2.60;2.40;;;15.90;99.90;;;;;;5028922;28;20268;-51
2023/07/14 03:57:41;;;;;;;2.63;1.77;;;15.90;99.90;;;;;;5032081;28;20198;-51
2023/07/14 04:00:14;;;;;;;3.80;2.37;;;16.00;99.90;;;;;;5032159;28;20202;-51
2023/07/14 04:02:41;;;;;;;1.93;1.83;;;16.00;99.90;;;;;;5032252;28;20264;-51
2023/07/14 04:05:10;;;;;;;2.23;2.13;;;16.00;99.90;;;;;;5032320;28;20222;-51
2023/07/14 04:07:41;;;;;;;2.80;2.53;;;15.90;99.90;;;;;;5031184;28;20723;-51
2023/07/14 04:10:09;;;;;;;2.73;2.57;;;15.90;99.90;;;;;;5029013;28;20624;-51
2023/07/14 04:12:36;;;;;;;1.90;1.80;;;15.90;99.90;;;;;;5031926;28;20206;-51
2023/07/14 04:15:05;;;;;;;3.80;2.93;;;15.90;99.90;;;;;;5031926;28;20777;-51
2023/07/14 04:17:32;;;;;;;3.17;2.30;;;15.90;99.90;;;;;;5031870;28;20293;-51
2023/07/14 04:19:59;;;;;;;4.63;2.60;;;15.90;99.90;;;;;;5031142;28;20718;-51
2023/07/14 04:22:26;;;;;;;2.13;1.90;;;16.00;99.90;;;;;;5031532;28;20872;-51
2023/07/14 04:24:54;;;;;;;1.97;1.70;;;16.00;99.90;;;;;;5031715;28;20777;-51
2023/07/14 04:27:21;;;;;;;2.57;1.83;;;16.10;99.90;;;;;;5029580;28;20201;-52
2023/07/14 04:29:48;;;;;;;2.37;2.27;;;16.10;99.90;;;;;;5029721;28;20195;-51
2023/07/14 04:32:16;;;;;;;2.47;2.23;;;16.20;99.90;;;;;;5028544;28;20195;-51
2023/07/14 04:34:44;;;;;;;8.63;5.03;;;16.30;99.90;;;;;;5030309;28;20777;-51
2023/07/14 04:37:11;;;;;;;5.80;5.27;;;16.50;99.90;;;;;;5030110;28;20202;-50
2023/07/14 04:39:38;;;;;;;13.27;8.83;;;16.50;99.90;;;;;;5011867;28;20222;-51
2023/07/14 04:42:05;;;;;;;7.87;7.07;;;16.50;99.90;;;;;;5013613;28;20735;-51
2023/07/14 04:44:33;;;;;;;9.47;6.60;;;16.50;99.90;;;;;;5017922;28;20234;-50
2023/07/14 04:47:00;;;;;;;6.83;5.17;;;16.60;99.90;;;;;;5022858;28;20203;-51
2023/07/14 04:49:28;;;;;;;4.70;4.40;;;16.70;99.90;;;;;;5013934;28;20195;-50
2023/07/14 04:51:55;;;;;;;4.07;3.77;;;16.70;99.90;;;;;;5024347;28;20622;-50
2023/07/14 04:54:23;;;;;;;4.27;2.97;;;16.80;99.90;;;;;;5012866;28;20199;-51
2023/07/14 04:56:51;;;;;;;2.67;2.43;;;16.80;99.90;;;;;;5010834;28;20202;-51
2023/07/14 04:59:18;;;;;;;3.27;2.90;;;16.90;99.90;;;;;;5015281;28;20222;-52
2023/07/14 05:01:45;;;;;;;2.60;2.50;;;17.00;99.90;;;;;;5014315;28;20278;-51
2023/07/14 05:04:12;;;;;;;2.77;2.67;;;17.00;99.90;;;;;;5015477;28;20198;-51
2023/07/14 05:06:41;;;;;;;2.33;2.13;;;17.20;99.90;;;;;;5016882;28;20199;-50
2023/07/14 05:09:08;;;;;;;2.70;2.50;;;17.30;99.90;;;;;;5024014;28;20248;-51
2023/07/14 05:11:35;;;;;;;3.87;2.33;;;17.50;99.90;;;;;;5030495;28;20648;-51
2023/07/14 05:14:04;;;;;;;4.93;2.27;;;17.70;99.90;;;;;;5033417;28;20751;-51
2023/07/14 05:16:31;;;;;;;2.93;2.03;;;17.80;99.90;;;;;;5033235;28;20249;-51
2023/07/14 05:18:58;;;;;;;2.57;1.97;;;18.10;99.90;;;;;;5031895;28;20245;-50
2023/07/14 05:21:25;;;;;;;2.40;1.73;;;18.60;99.90;;;;;;5020536;28;20206;-51
2023/07/14 05:23:53;;;;;;;1.70;1.60;;;19.50;99.90;;;;;;5014675;28;20267;-51
2023/07/14 05:26:20;;;;;;;4.70;1.87;;;20.60;99.90;;;;;;5028346;28;20272;-50
2023/07/14 05:28:47;;;;;;;4.93;1.80;;;21.40;99.90;;;;;;5017199;28;20204;-51
2023/07/14 05:31:15;;;;;;;2.40;1.50;;;22.20;99.90;;;;;;5033279;28;20632;-51
2023/07/14 05:33:42;;;;;;;3.07;1.60;;;23.10;99.90;;;;;;5026334;28;20269;-52
2023/07/14 05:36:09;;;;;;;2.73;1.87;;;23.70;99.90;;;;;;5026329;28;20269;-51
2023/07/14 05:38:37;;;;;;;4.90;1.53;;;24.20;99.90;;;;;;5018253;28;20270;-51
2023/07/14 05:41:08;;;;;;;3.80;1.40;;;24.90;99.90;;;;;;5014556;28;20197;-51
2023/07/14 05:43:35;;;;;;;3.37;1.33;;;25.30;99.90;;;;;;5021149;28;20313;-51
2023/07/14 05:46:03;;;;;;;1.33;1.20;;;25.70;99.90;;;;;;5020876;28;20219;-51
2023/07/14 05:48:30;;;;;;;1.47;1.30;;;25.90;99.90;;;;;;5016201;28;20680;-51
2023/07/14 05:50:58;;;;;;;1.57;0.90;;;26.30;99.90;;;;;;5023217;28;20621;-52
2023/07/14 05:53:26;;;;;;;1.13;1.13;;;26.40;99.90;;;;;;5014333;28;20245;-51
2023/07/14 05:55:55;;;;;;;1.60;1.50;;;26.40;99.90;;;;;;5017757;28;20221;-51
2023/07/14 05:58:24;;;;;;;1.00;1.00;;;26.50;99.90;;;;;;5032622;28;20230;-51
2023/07/14 06:00:54;;;;;;;2.05;1.50;;;26.90;99.90;;;;;;5014243;28;20516;-51
2023/07/14 06:03:22;;;;;;;1.20;1.20;;;27.10;99.90;;;;;;5025947;28;20664;-51
2023/07/14 06:05:50;;;;;;;3.40;1.75;;;27.50;99.90;;;;;;5018878;28;20219;-52
2023/07/14 06:08:18;;;;;;;1.25;1.08;;;27.60;99.90;;;;;;5015571;28;20254;-52
2023/07/14 06:10:46;;;;;;;1.30;1.30;;;28.10;99.90;;;;;;5032451;28;20209;-51
2023/07/14 06:13:13;;;;;;;0.85;0.85;;;28.30;99.90;;;;;;5031943;28;20252;-52
2023/07/14 06:15:46;;;;;;;1.38;1.27;;;28.60;99.90;;;;;;5031240;28;20704;-52
2023/07/14 06:18:13;;;;;;;4.90;1.17;;;28.40;99.90;;;;;;5013811;28;20294;-51
2023/07/14 06:20:40;;;;;;;1.67;1.17;;;28.80;99.90;;;;;;5017131;28;20231;-51
2023/07/14 06:23:07;;;;;;;1.15;0.80;;;28.80;99.90;;;;;;5023830;28;20210;-52
2023/07/14 06:25:34;;;;;;;0.85;0.85;;;28.60;99.90;;;;;;5017303;28;20292;-59
2023/07/14 06:28:01;;;;;;;4.43;1.10;;;28.90;99.90;;;;;;5028054;28;20205;-59
2023/07/14 06:30:28;;;;;;;1.00;1.00;;;28.60;99.90;;;;;;5022299;28;20226;-51
2023/07/14 06:32:57;;;;;;;0.90;0.90;;;29.00;99.90;;;;;;5022246;28;20198;-52
2023/07/14 06:35:24;;;;;;;0.93;0.93;;;29.20;99.90;;;;;;5029474;28;20218;-52
2023/07/14 06:37:51;;;;;;;2.95;1.42;;;29.40;99.90;;;;;;5016943;28;20203;-52
2023/07/14 06:40:20;;;;;;;1.27;0.82;;;29.60;99.90;;;;;;5014693;28;20559;-52
2023/07/14 06:42:48;;;;;;;1.85;1.45;;;29.90;99.90;;;;;;5017970;28;20207;-52
2023/07/14 06:45:14;;;;;;;2.05;1.10;;;29.50;99.90;;;;;;5022812;28;20230;-53
2023/07/14 06:47:42;;;;;;;2.42;0.90;;;29.50;99.90;;;;;;5023592;28;20202;-51
2023/07/14 06:50:10;;;;;;;1.13;1.00;;;29.70;99.90;;;;;;5022096;28;20198;-51
2023/07/14 06:52:42;;;;;;;1.55;1.08;;;29.60;99.90;;;;;;5023536;28;20215;-52
2023/07/14 06:55:10;;;;;;;1.05;1.05;;;29.50;99.90;;;;;;5013978;28;20786;-51
2023/07/14 06:57:39;;;;;;;1.95;0.90;;;29.30;99.90;;;;;;5012732;28;20661;-52
2023/07/14 07:00:10;;;;;;;1.05;0.95;;;29.50;99.90;;;;;;5014249;28;20289;-52
2023/07/14 07:02:40;;;;;;;2.60;1.40;;;29.90;99.90;;;;;;5021362;28;20377;-51
2023/07/14 07:05:10;;;;;;;1.00;0.90;;;30.00;99.90;;;;;;5033343;28;20284;-52
2023/07/14 07:07:41;;;;;;;0.98;0.98;;;29.40;99.90;;;;;;5025285;28;20245;-52
2023/07/14 07:10:09;;;;;;;3.15;1.17;;;29.90;99.90;;;;;;5029422;28;20664;-52
2023/07/14 07:12:36;;;;;;;1.50;1.50;;;29.80;99.90;;;;;;5031821;28;20664;-52
2023/07/14 07:15:04;;;;;;;1.20;1.20;;;30.00;99.90;;;;;;5030911;28;20226;-52
2023/07/14 07:17:31;;;;;;;1.95;1.27;;;30.10;99.90;;;;;;5030303;28;20206;-52
2023/07/14 07:19:58;;;;;;;1.02;1.00;;;30.20;99.90;;;;;;5030188;28;20285;-52
2023/07/14 07:22:25;;;;;;;1.10;1.10;;;30.10;99.90;;;;;;5030070;28;20229;-52
2023/07/14 07:24:54;;;;;;;0.98;0.98;;;30.30;99.90;;;;;;5024571;28;20222;-52
2023/07/14 07:27:20;;;;;;;1.58;1.10;;;29.70;99.90;;;;;;5031552;28;20202;-52
2023/07/14 07:29:47;;;;;;;0.90;0.90;;;29.60;99.90;;;;;;5031901;28;20199;-52
2023/07/14 07:32:14;;;;;;;2.58;1.90;;;29.00;99.90;;;;;;5030619;28;20261;-52
2023/07/14 07:34:41;;;;;;;1.05;1.05;;;29.00;99.90;;;;;;5027814;28;20280;-52
2023/07/14 07:37:10;;;;;;;2.78;1.10;;;28.90;99.90;;;;;;5029818;28;20198;-52
2023/07/14 07:39:37;;;;;;;3.38;1.05;;;29.00;99.90;;;;;;5031190;28;20222;-52
2023/07/14 07:42:07;;;;;;;1.80;1.02;;;29.00;99.90;;;;;;5026401;28;20210;-53
2023/07/14 07:44:34;;;;;;;1.00;1.00;;;28.40;99.90;;;;;;5024135;28;20711;-51
2023/07/14 07:47:02;;;;;;;2.35;1.75;;;28.50;99.90;;;;;;5053490;22;20249;-58
2023/07/14 07:49:29;;;;;;;1.92;1.30;;;28.60;99.90;;;;;;5028778;28;20202;-57
2023/07/14 07:51:56;;;;;;;0.77;0.77;;;29.50;99.90;;;;;;5022990;28;20206;-56
2023/07/14 07:54:23;;;;;;;1.67;1.58;;;30.20;99.90;;;;;;5030543;28;20277;-57
2023/07/14 07:56:50;;;;;;;1.08;1.08;;;30.10;99.90;;;;;;5026499;28;20230;-57
2023/07/14 07:59:18;;;;;;;0.90;0.90;;;30.10;99.90;;;;;;5023446;28;20684;-57
2023/07/14 08:01:46;;;;;;;1.27;1.23;;;30.40;99.90;;;;;;5020973;28;20210;-57
2023/07/14 08:04:13;;;;;;;2.15;1.23;;;30.90;99.90;;;;;;5017438;28;20234;-56
2023/07/14 08:06:40;;;;;;;1.45;1.20;;;30.90;99.90;;;;;;5006563;28;20621;-56
2023/07/14 08:09:09;;;;;;;1.65;1.23;;;31.20;99.60;;;;;;5006712;28;20265;-58
2023/07/14 08:11:36;;;;;;;1.77;1.23;;;31.40;99.90;;;;;;5010665;28;20618;-57
2023/07/14 08:14:04;;;;;;;2.30;1.27;;;31.40;99.90;;;;;;5028886;28;20236;-56
2023/07/14 08:16:32;;;;;;;2.83;0.85;;;31.20;98.80;;;;;;5001947;28;20227;-57
2023/07/14 08:19:01;;;;;;;1.88;1.15;;;30.60;99.60;;;;;;5026792;28;20245;-57
2023/07/14 08:21:30;;;;;;;1.20;1.10;;;30.40;98.70;;;;;;5011542;28;20222;-57
2023/07/14 08:23:58;;;;;;;3.05;1.20;;;30.30;99.90;;;;;;5011383;28;20673;-57
2023/07/14 08:26:25;;;;;;;1.10;1.10;;;30.90;99.90;;;;;;5011817;28;20219;-57
2023/07/14 08:28:52;;;;;;;0.77;0.77;;;31.00;99.90;;;;;;5011622;28;20260;-57
2023/07/14 08:31:19;;;;;;;1.10;1.10;;;30.90;99.60;;;;;;5015345;28;20245;-57
2023/07/14 08:33:47;;;;;;;1.13;1.13;;;31.20;98.10;;;;;;5018143;28;20203;-57
2023/07/14 08:36:15;;;;;;;1.95;0.95;;;31.40;99.10;;;;;;5011381;28;20229;-58
2023/07/14 08:38:42;;;;;;;2.10;1.20;;;31.70;97.80;;;;;;5011691;28;20265;-58
2023/07/14 08:41:21;;;;;;;0.98;0.98;;;31.50;98.80;;;;;;5009699;28;20218;-57
2023/07/14 08:44:10;;;;;;;1.85;1.10;;;31.70;99.40;;;;;;5019832;28;20203;-58
2023/07/14 08:46:46;;;;;;;1.40;1.13;;;31.60;99.80;;;;;;5006407;28;20308;-57
2023/07/14 08:49:22;;;;;;;0.98;0.98;;;31.40;99.30;;;;;;5012759;28;20202;-58
2023/07/14 08:51:53;;;;;;;1.25;1.10;;;31.70;99.90;;;;;;5011955;28;20202;-57
2023/07/14 08:54:24;;;;;;;2.05;1.20;;;31.60;96.10;;;;;;5014339;28;20195;-57
2023/07/14 08:56:52;;;;;;;1.42;1.33;;;31.70;95.40;;;;;;5018241;28;20223;-57
2023/07/14 08:59:28;;;;;;;2.53;1.15;;;31.70;95.50;;;;;;5014099;28;20291;-59
2023/07/14 09:01:57;;;;;;;1.45;1.45;;;31.60;95.00;;;;;;5006140;28;20671;-57
2023/07/14 09:04:28;;;;;;;0.93;0.93;;;31.80;95.90;;;;;;5013111;28;20652;-58
2023/07/14 09:06:56;;;;;;;0.90;0.90;;;31.80;97.20;;;;;;5020049;28;20232;-59
2023/07/14 09:09:31;;;;;;;0.90;0.90;;;31.40;94.70;;;;;;5016238;28;20203;-57
2023/07/14 09:12:09;;;;;;;0.80;0.80;;;31.50;99.10;;;;;;5007955;28;20301;-57
2023/07/14 09:14:55;;;;;;;1.80;1.70;;;31.50;95.60;;;;;;5003024;28;20277;-58
2023/07/14 09:17:31;;;;;;;1.02;0.88;;;31.30;96.50;;;;;;5013418;28;20218;-57
2023/07/14 09:20:27;;;;;;;1.35;0.90;;;31.30;97.90;;;;;;5008744;28;20785;-57
2023/07/14 09:23:03;;;;;;;1.52;0.80;;;31.40;98.50;;;;;;5018557;28;20206;-57
2023/07/14 09:25:38;;;;;;;2.97;1.17;;;31.50;98.30;;;;;;5013196;28;20206;-57
2023/07/14 09:28:09;;;;;;;1.20;1.10;;;31.70;98.60;;;;;;5010009;28;20262;-57
2023/07/14 09:30:38;;;;;;;1.13;1.05;;;31.70;96.40;;;;;;5009326;28;20269;-57
2023/07/14 09:33:11;;;;;;;2.25;1.27;;;31.80;97.40;;;;;;5021144;28;20210;-57
2023/07/14 09:35:40;;;;;;;1.02;0.93;;;31.40;95.80;;;;;;5024289;28;20246;-57
2023/07/14 09:38:16;;;;;;;1.42;1.33;;;31.20;97.40;;;;;;5009357;28;20287;-57
2023/07/14 09:40:48;;;;;;;1.25;1.25;;;31.80;96.40;;;;;;5013062;28;20226;-58
2023/07/14 09:43:15;;;;;;;1.75;1.50;;;32.20;93.60;;;;;;5021218;28;20250;-58
2023/07/14 09:45:42;;;;;;;1.40;1.02;;;32.20;93.70;;;;;;5015008;28;20696;-57
2023/07/14 09:48:16;;;;;;;1.15;1.15;;;32.00;95.10;;;;;;5009658;28;20261;-58
2023/07/14 09:50:53;;;;;;;0.90;0.90;;;31.90;94.90;;;;;;5015698;28;20256;-58
2023/07/14 09:53:20;;;;;;;1.02;0.90;;;31.20;95.10;;;;;;5013971;28;20202;-56
2023/07/14 09:55:55;;;;;;;1.35;1.10;;;31.30;95.80;;;;;;5021638;28;20269;-57
2023/07/14 09:58:25;;;;;;;0.93;0.93;;;31.10;95.40;;;;;;5004187;28;20209;-56
2023/07/14 10:00:55;;;;;;;1.08;1.08;;;31.40;94.40;;;;;;5022837;28;20693;-57
2023/07/14 10:03:28;;;;;;;1.45;0.95;;;31.50;97.30;;;;;;5033229;28;20656;-57
2023/07/14 10:06:02;;;;;;;1.38;1.38;;;31.50;96.70;;;;;;5033411;28;20309;-56
2023/07/14 10:08:33;;;;;;;4.70;1.52;;;32.00;96.30;;;;;;5026315;28;20209;-58
2023/07/14 10:11:11;;;;;;;5.15;1.23;;;31.70;96.80;;;;;;5023937;28;20661;-57
2023/07/14 10:13:38;;;;;;;2.88;1.25;;;31.80;97.40;;;;;;5029572;28;20206;-56
2023/07/14 10:16:14;;;;;;;1.08;0.95;;;32.40;96.00;;;;;;4997616;28;20222;-57
2023/07/14 10:18:54;;;;;;;1.40;1.40;;;32.40;95.60;;;;;;5002872;28;20203;-56
2023/07/14 10:21:28;;;;;;;1.17;1.02;;;32.20;96.30;;;;;;4993913;28;20694;-57
2023/07/14 10:23:59;;;;;;;1.00;1.00;;;31.90;96.20;;;;;;4998388;28;20191;-57
2023/07/14 10:26:30;;;;;;;1.20;1.20;;;31.30;96.90;;;;;;5002995;28;20226;-56
2023/07/14 10:28:57;;;;;;;0.93;0.93;;;31.40;98.20;;;;;;5009463;28;20556;-56
2023/07/14 10:31:30;;;;;;;1.45;1.45;;;31.20;97.60;;;;;;5002751;28;20711;-57
2023/07/14 10:34:20;;;;;;;2.25;1.85;;;31.20;97.90;;;;;;5011600;28;20203;-57
2023/07/14 10:36:52;;;;;;;1.63;1.45;;;31.50;99.00;;;;;;5003741;28;20669;-57
2023/07/14 10:39:30;;;;;;;1.65;1.38;;;31.70;97.90;;;;;;5000158;28;20250;-57
2023/07/14 10:41:59;;;;;;;2.78;1.35;;;32.10;98.80;;;;;;5003915;28;20223;-57
2023/07/14 10:44:29;;;;;;;1.90;0.95;;;31.90;96.70;;;;;;5011623;28;20238;-58
2023/07/14 10:47:02;;;;;;;1.02;1.02;;;31.80;96.00;;;;;;5019385;28;20230;-57
2023/07/14 10:49:33;;;;;;;1.42;1.42;;;31.70;97.30;;;;;;5028097;28;20648;-57
2023/07/14 10:52:07;;;;;;;3.97;1.63;;;32.10;95.30;;;;;;5011715;28;20195;-57
2023/07/14 10:54:46;;;;;;;2.15;1.60;;;32.20;97.20;;;;;;5017650;28;20211;-57
2023/07/14 10:57:24;;;;;;;1.77;1.58;;;32.20;97.10;;;;;;4998346;28;20219;-57
2023/07/14 10:59:57;;;;;;;1.10;1.10;;;31.70;96.80;;;;;;5021406;28;20700;-57
2023/07/14 11:02:29;;;;;;;1.35;1.25;;;31.60;97.70;;;;;;5019773;28;20203;-57
2023/07/14 11:05:03;;;;;;;1.20;1.15;;;30.70;98.00;;;;;;5031788;28;20578;-57
2023/07/14 11:07:34;;;;;;;3.85;1.60;;;30.60;98.70;;;;;;5025565;28;20252;-56
2023/07/14 11:10:04;;;;;;;1.10;1.00;;;30.50;97.80;;;;;;5023700;28;20272;-57
2023/07/14 11:12:41;;;;;;;1.23;1.23;;;30.60;99.90;;;;;;5032776;28;20245;-57
2023/07/14 11:15:21;;;;;;;1.40;1.40;;;30.60;98.10;;;;;;5032907;28;20209;-57
2023/07/14 11:17:57;;;;;;;1.63;1.35;;;30.70;97.80;;;;;;5026259;28;20571;-57
2023/07/14 11:20:30;;;;;;;1.23;1.23;;;30.60;99.50;;;;;;5018783;28;20272;-57
2023/07/14 11:23:09;;;;;;;4.18;1.42;;;30.40;99.90;;;;;;5024172;28;20202;-57
2023/07/14 11:25:44;;;;;;;1.80;1.48;;;30.20;99.30;;;;;;5032863;28;20280;-57
2023/07/14 11:28:25;;;;;;;1.45;1.35;;;30.20;99.90;;;;;;5032812;28;20206;-56
2023/07/14 11:30:56;;;;;;;1.77;1.20;;;29.90;99.90;;;;;;5022666;28;20268;-57
2023/07/14 11:33:29;;;;;;;1.20;1.20;;;29.90;99.90;;;;;;5026077;28;20289;-57
2023/07/14 11:36:01;;;;;;;1.40;1.40;;;29.70;99.90;;;;;;5032505;28;20305;-57
2023/07/14 11:38:37;;;;;;;1.30;1.30;;;29.90;99.90;;;;;;5032323;28;20210;-57
2023/07/14 11:41:05;;;;;;;1.95;1.30;;;30.00;99.90;;;;;;5024063;28;20227;-58
2023/07/14 11:43:33;;;;;;;1.08;1.05;;;30.00;99.90;;;;;;5027126;28;20206;-57
2023/07/14 11:46:03;;;;;;;2.08;0.82;;;29.30;99.90;;;;;;5032348;28;20586;-58
2023/07/14 11:48:38;;;;;;;1.60;1.50;;;29.20;99.90;;;;;;5032216;28;20293;-56
2023/07/14 11:51:07;;;;;;;1.05;0.70;;;29.40;99.90;;;;;;5016356;28;20194;-57
2023/07/14 11:53:39;;;;;;;3.05;1.30;;;29.20;99.90;;;;;;5022614;28;20198;-58
2023/07/14 11:56:31;;;;;;;1.08;0.98;;;28.80;99.90;;;;;;5023569;28;20219;-56
2023/07/14 11:59:17;;;;;;;1.13;0.90;;;28.20;99.90;;;;;;5013090;28;20263;-56
2023/07/14 12:01:46;;;;;;;0.85;0.85;;;28.10;99.90;;;;;;5019234;28;20226;-56
2023/07/14 12:04:29;;;;;;;4.85;1.23;;;28.20;99.90;;;;;;5031562;28;20253;-57
2023/07/14 12:07:12;;;;;;;1.83;1.40;;;28.10;99.90;;;;;;5031800;28;20712;-56
2023/07/14 12:10:04;;;;;;;1.30;1.20;;;28.10;99.90;;;;;;5026083;28;20205;-57
2023/07/14 12:12:33;;;;;;;1.55;1.45;;;28.20;99.90;;;;;;5015086;28;20198;-56
2023/07/14 12:15:02;;;;;;;2.97;1.23;;;28.40;99.90;;;;;;5012358;28;20242;-56
2023/07/14 12:17:46;;;;;;;1.80;1.10;;;28.60;99.90;;;;;;5012674;28;20231;-57
2023/07/14 12:20:36;;;;;;;1.10;1.10;;;28.70;99.90;;;;;;5015174;28;20202;-56
2023/07/14 12:23:11;;;;;;;1.65;1.02;;;28.70;99.90;;;;;;5025114;28;20584;-57
2023/07/14 12:25:44;;;;;;;1.10;1.10;;;28.40;99.90;;;;;;5027548;28;20267;-57
2023/07/14 12:28:25;;;;;;;2.33;1.30;;;28.20;99.90;;;;;;5031593;28;20563;-56
2023/07/14 12:30:53;;;;;;;1.33;1.23;;;28.20;99.90;;;;;;5027930;28;20234;-57
2023/07/14 12:33:21;;;;;;;1.10;1.10;;;28.30;99.90;;;;;;5022910;28;20256;-57
2023/07/14 12:35:51;;;;;;;1.02;1.02;;;28.40;99.90;;;;;;5025366;28;20469;-67
2023/07/14 12:38:20;;;;;;;1.52;1.00;;;28.20;99.90;;;;;;5024631;28;20306;-64
2023/07/14 12:40:53;;;;;;;1.88;1.27;;;28.30;99.90;;;;;;5026488;28;20423;-67
2023/07/14 12:43:34;;;;;;;1.23;0.90;;;28.30;99.90;;;;;;5004741;28;20199;-57
2023/07/14 12:46:03;;;;;;;1.52;1.23;;;28.30;99.90;;;;;;5030014;28;20264;-68
2023/07/14 12:48:33;;;;;;;1.13;0.93;;;28.20;99.90;;;;;;5031277;28;20289;-67
2023/07/14 12:51:10;;;;;;;1.15;1.15;;;28.10;99.90;;;;;;5025498;28;20210;-67
2023/07/14 12:53:40;;;;;;;1.40;1.10;;;28.10;99.90;;;;;;5006950;28;20645;-66
2023/07/14 12:56:14;;;;;;;1.33;1.33;;;28.00;99.90;;;;;;5011289;28;20219;-66
2023/07/14 12:58:41;;;;;;;0.90;0.90;;;28.10;99.90;;;;;;5011309;28;20215;-68
2023/07/14 13:01:08;;;;;;;3.13;1.88;;;28.10;99.90;;;;;;5006716;28;20230;-67
2023/07/14 13:03:37;;;;;;;1.00;1.00;;;28.20;99.90;;;;;;4994522;28;20214;-67